sensor_id;sensor_type;location;lat;lon;timestamp;pressure;altitude;pressure_sealevel;temperature;humidity
31775;BME280;66189;49.000;11.640;2023-04-01T00:01:09;94610.75;;;6.34;78.63
31775;BME280;66189;49.000;11.640;2023-04-01T00:03:12;94609.50;;;6.24;78.97
31775;BME280;66189;49.000;11.640;2023-04-01T00:05:12;94633.97;;;6.30;78.46
31775;BME280;66189;49.000;11.640;2023-04-01T00:07:13;94613.41;;;6.34;78.70
31775;BME280;66189;49.000;11.640;2023-04-01T00:09:14;94607.31;;;6.33;78.66
31775;BME280;66189;49.000;11.640;2023-04-01T00:11:14;94612.28;;;6.35;78.67
31775;BME280;66189;49.000;11.640;2023-04-01T00:13:15;94613.78;;;6.32;78.69
31775;BME280;66189;49.000;11.640;2023-04-01T00:15:16;94607.69;;;6.32;78.51
31775;BME280;66189;49.000;11.640;2023-04-01T00:17:16;94614.91;;;6.31;78.68
31775;BME280;66189;49.000;11.640;2023-04-01T00:19:16;94600.47;;;6.36;78.47
31775;BME280;66189;49.000;11.640;2023-04-01T00:21:17;94599.22;;;6.26;78.87
31775;BME280;66189;49.000;11.640;2023-04-01T00:23:19;94592.69;;;6.23;79.15
31775;BME280;66189;49.000;11.640;2023-04-01T00:25:20;94598.47;;;6.29;78.47
31775;BME280;66189;49.000;11.640;2023-04-01T00:27:21;94597.34;;;6.30;78.58
31775;BME280;66189;49.000;11.640;2023-04-01T00:29:22;94595.84;;;6.33;78.25
31775;BME280;66189;49.000;11.640;2023-04-01T00:31:24;94610.75;;;6.34;77.93
31775;BME280;66189;49.000;11.640;2023-04-01T00:33:24;94603.47;;;6.31;78.10
31775;BME280;66189;49.000;11.640;2023-04-01T00:35:25;94604.59;;;6.30;78.10
31775;BME280;66189;49.000;11.640;2023-04-01T00:37:26;94598.44;;;6.26;78.34
31775;BME280;66189;49.000;11.640;2023-04-01T00:39:29;94597.97;;;6.20;78.56
31775;BME280;66189;49.000;11.640;2023-04-01T00:41:29;94604.91;;;6.25;78.17
31775;BME280;66189;49.000;11.640;2023-04-01T00:43:30;94606.75;;;6.20;78.36
31775;BME280;66189;49.000;11.640;2023-04-01T00:45:36;94590.84;;;6.28;77.75
31775;BME280;66189;49.000;11.640;2023-04-01T00:47:38;94596.13;;;6.24;78.27
31775;BME280;66189;49.000;11.640;2023-04-01T00:49:40;94597.66;;;6.25;77.97
31775;BME280;66189;49.000;11.640;2023-04-01T00:51:44;94589.16;;;6.16;78.82
31775;BME280;66189;49.000;11.640;2023-04-01T00:53:48;94596.50;;;6.22;78.03
31775;BME280;66189;49.000;11.640;2023-04-01T00:55:58;94585.88;;;6.30;77.52
31775;BME280;66189;49.000;11.640;2023-04-01T00:58:02;94583.66;;;6.32;77.63
31775;BME280;66189;49.000;11.640;2023-04-01T01:00:09;94580.50;;;6.26;77.96
31775;BME280;66189;49.000;11.640;2023-04-01T01:02:12;94584.31;;;6.25;77.78
31775;BME280;66189;49.000;11.640;2023-04-01T01:04:33;94580.50;;;6.26;77.88
31775;BME280;66189;49.000;11.640;2023-04-01T01:06:46;94577.47;;;6.28;77.94
31775;BME280;66189;49.000;11.640;2023-04-01T01:09:02;94580.13;;;6.24;78.04
31775;BME280;66189;49.000;11.640;2023-04-01T01:11:10;94589.25;;;6.23;78.00
31775;BME280;66189;49.000;11.640;2023-04-01T01:13:34;94578.97;;;6.25;77.65
31775;BME280;66189;49.000;11.640;2023-04-01T01:17:49;94572.50;;;6.26;77.52
31775;BME280;66189;49.000;11.640;2023-04-01T01:19:56;94580.13;;;6.24;77.93
31775;BME280;66189;49.000;11.640;2023-04-01T01:22:22;94588.53;;;6.26;77.63
31775;BME280;66189;49.000;11.640;2023-04-01T01:25:09;94584.66;;;6.23;77.62
31775;BME280;66189;49.000;11.640;2023-04-01T01:27:17;94578.94;;;6.21;77.97
31775;BME280;66189;49.000;11.640;2023-04-01T01:36:37;94578.97;;;6.25;78.12
31775;BME280;66189;49.000;11.640;2023-04-01T01:38:42;94583.94;;;6.27;78.15
31775;BME280;66189;49.000;11.640;2023-04-01T01:40:47;94572.84;;;6.21;78.40
31775;BME280;66189;49.000;11.640;2023-04-01T01:42:55;94572.88;;;6.25;77.85
31775;BME280;66189;49.000;11.640;2023-04-01T01:44:57;94574.00;;;6.23;78.52
31775;BME280;66189;49.000;11.640;2023-04-01T01:47:00;94581.91;;;6.16;78.65
31775;BME280;66189;49.000;11.640;2023-04-01T01:49:02;94586.50;;;6.19;78.92
31775;BME280;66189;49.000;11.640;2023-04-01T01:51:06;94575.84;;;6.19;78.90
31775;BME280;66189;49.000;11.640;2023-04-01T01:53:11;94580.47;;;6.22;78.64
31775;BME280;66189;49.000;11.640;2023-04-01T01:55:33;94576.16;;;6.14;78.93
31775;BME280;66189;49.000;11.640;2023-04-01T01:57:36;94574.22;;;6.11;79.15
31775;BME280;66189;49.000;11.640;2023-04-01T01:59:42;94583.44;;;6.17;79.18
31775;BME280;66189;49.000;11.640;2023-04-01T02:01:51;94579.28;;;6.20;78.58
31775;BME280;66189;49.000;11.640;2023-04-01T02:03:52;94583.06;;;6.15;78.96
31775;BME280;66189;49.000;11.640;2023-04-01T02:05:56;94582.63;;;6.13;79.12
31775;BME280;66189;49.000;11.640;2023-04-01T02:08:06;94584.50;;;6.09;79.35
31775;BME280;66189;49.000;11.640;2023-04-01T02:10:07;94583.72;;;6.09;79.39
31775;BME280;66189;49.000;11.640;2023-04-01T02:12:11;94594.81;;;6.11;79.43
31775;BME280;66189;49.000;11.640;2023-04-01T02:14:20;94573.75;;;6.05;79.50
31775;BME280;66189;49.000;11.640;2023-04-01T02:16:27;94569.50;;;6.01;79.75
31775;BME280;66189;49.000;11.640;2023-04-01T02:18:29;94575.34;;;6.10;79.72
31775;BME280;66189;49.000;11.640;2023-04-01T02:20:32;94573.03;;;6.09;79.67
31775;BME280;66189;49.000;11.640;2023-04-01T02:22:35;94576.44;;;6.05;79.60
31775;BME280;66189;49.000;11.640;2023-04-01T02:24:38;94580.25;;;6.04;79.82
31775;BME280;66189;49.000;11.640;2023-04-01T02:26:40;94576.38;;;6.02;79.87
31775;BME280;66189;49.000;11.640;2023-04-01T02:28:43;94590.94;;;6.04;79.52
31775;BME280;66189;49.000;11.640;2023-04-01T02:30:46;94584.06;;;6.07;79.92
31775;BME280;66189;49.000;11.640;2023-04-01T02:32:48;94580.25;;;6.04;80.20
31775;BME280;66189;49.000;11.640;2023-04-01T02:34:50;94590.56;;;6.06;79.80
31775;BME280;66189;49.000;11.640;2023-04-01T02:36:55;94587.16;;;6.09;79.88
31775;BME280;66189;49.000;11.640;2023-04-01T02:38:57;94594.31;;;6.01;79.74
31775;BME280;66189;49.000;11.640;2023-04-01T02:41:02;94605.00;;;6.01;80.10
31775;BME280;66189;49.000;11.640;2023-04-01T02:43:03;94593.81;;;5.96;80.13
31775;BME280;66189;49.000;11.640;2023-04-01T02:45:04;94597.75;;;6.02;80.16
31775;BME280;66189;49.000;11.640;2023-04-01T02:47:05;94597.41;;;6.07;79.92
31775;BME280;66189;49.000;11.640;2023-04-01T02:49:06;94612.50;;;5.96;80.25
31775;BME280;66189;49.000;11.640;2023-04-01T02:51:07;94602.00;;;6.07;79.87
31775;BME280;66189;49.000;11.640;2023-04-01T02:53:08;94610.34;;;6.01;80.14
31775;BME280;66189;49.000;11.640;2023-04-01T02:55:08;94605.78;;;6.05;80.09
31775;BME280;66189;49.000;11.640;2023-04-01T02:57:09;94609.84;;;5.96;80.20
31775;BME280;66189;49.000;11.640;2023-04-01T02:59:10;94602.59;;;5.96;80.43
31775;BME280;66189;49.000;11.640;2023-04-01T03:01:10;94609.06;;;5.95;80.24
31775;BME280;66189;49.000;11.640;2023-04-01T03:03:12;94601.00;;;5.92;80.30
31775;BME280;66189;49.000;11.640;2023-04-01T03:05:13;94614.78;;;5.94;80.08
31775;BME280;66189;49.000;11.640;2023-04-01T03:07:14;94606.34;;;5.92;80.21
31775;BME280;66189;49.000;11.640;2023-04-01T03:09:14;94625.03;;;5.92;80.40
31775;BME280;66189;49.000;11.640;2023-04-01T03:11:15;94616.63;;;5.90;80.23
31775;BME280;66189;49.000;11.640;2023-04-01T03:13:16;94613.59;;;5.91;80.20
31775;BME280;66189;49.000;11.640;2023-04-01T03:15:17;94619.81;;;5.99;80.16
31775;BME280;66189;49.000;11.640;2023-04-01T03:17:17;94611.31;;;5.93;79.97
31775;BME280;66189;49.000;11.640;2023-04-01T03:19:18;94616.66;;;5.93;80.16
31775;BME280;66189;49.000;11.640;2023-04-01T03:21:21;94618.22;;;5.94;80.12
31775;BME280;66189;49.000;11.640;2023-04-01T03:23:23;94618.84;;;5.87;80.14
31775;BME280;66189;49.000;11.640;2023-04-01T03:25:24;94624.66;;;5.93;79.87
31775;BME280;66189;49.000;11.640;2023-04-01T03:27:25;94618.84;;;5.87;80.18
31775;BME280;66189;49.000;11.640;2023-04-01T03:29:26;94620.88;;;5.94;80.40
31775;BME280;66189;49.000;11.640;2023-04-01T03:31:26;94626.72;;;6.00;80.19
31775;BME280;66189;49.000;11.640;2023-04-01T03:33:30;94621.94;;;5.90;80.19
31775;BME280;66189;49.000;11.640;2023-04-01T03:35:31;94628.84;;;5.91;80.18
31775;BME280;66189;49.000;11.640;2023-04-01T03:37:31;94620.13;;;5.94;79.78
31775;BME280;66189;49.000;11.640;2023-04-01T03:39:32;94626.53;;;5.89;80.19
31775;BME280;66189;49.000;11.640;2023-04-01T03:41:32;94621.94;;;5.90;80.32
31775;BME280;66189;49.000;11.640;2023-04-01T03:43:35;94621.94;;;5.90;80.27
31775;BME280;66189;49.000;11.640;2023-04-01T03:45:36;94625.28;;;5.83;80.71
31775;BME280;66189;49.000;11.640;2023-04-01T03:47:36;94634.44;;;5.82;80.60
31775;BME280;66189;49.000;11.640;2023-04-01T03:49:37;94639.06;;;5.85;80.40
31775;BME280;66189;49.000;11.640;2023-04-01T03:51:41;94628.66;;;5.80;80.53
31775;BME280;66189;49.000;11.640;2023-04-01T03:53:42;94630.56;;;5.79;80.75
31775;BME280;66189;49.000;11.640;2023-04-01T03:55:43;94620.25;;;5.78;81.00
31775;BME280;66189;49.000;11.640;2023-04-01T03:57:43;94618.34;;;5.78;80.65
31775;BME280;66189;49.000;11.640;2023-04-01T03:59:52;94627.84;;;5.76;81.14
31775;BME280;66189;49.000;11.640;2023-04-01T04:01:52;94629.84;;;5.82;80.96
31775;BME280;66189;49.000;11.640;2023-04-01T04:03:52;94638.53;;;5.76;81.21
31775;BME280;66189;49.000;11.640;2023-04-01T04:05:53;94623.31;;;5.80;81.08
31775;BME280;66189;49.000;11.640;2023-04-01T04:07:54;94628.22;;;5.74;81.38
31775;BME280;66189;49.000;11.640;2023-04-01T04:09:54;94629.38;;;5.77;81.69
31775;BME280;66189;49.000;11.640;2023-04-01T04:11:55;94642.38;;;5.78;81.58
31775;BME280;66189;49.000;11.640;2023-04-01T04:13:55;94644.59;;;5.73;82.03
31775;BME280;66189;49.000;11.640;2023-04-01T04:15:56;94636.16;;;5.70;82.04
31775;BME280;66189;49.000;11.640;2023-04-01T04:17:56;94634.31;;;5.75;82.04
31775;BME280;66189;49.000;11.640;2023-04-01T04:19:57;94634.31;;;5.75;82.15
31775;BME280;66189;49.000;11.640;2023-04-01T04:21:57;94646.06;;;5.70;82.20
31775;BME280;66189;49.000;11.640;2023-04-01T04:24:01;94631.59;;;5.71;82.04
31775;BME280;66189;49.000;11.640;2023-04-01T04:26:16;94650.63;;;5.69;82.31
31775;BME280;66189;49.000;11.640;2023-04-01T04:28:21;94658.69;;;5.73;82.10
31775;BME280;66189;49.000;11.640;2023-04-01T04:30:22;94642.28;;;5.71;82.49
31775;BME280;66189;49.000;11.640;2023-04-01T04:32:22;94641.03;;;5.65;82.42
31775;BME280;66189;49.000;11.640;2023-04-01T04:34:23;94643.28;;;5.63;82.58
31775;BME280;66189;49.000;11.640;2023-04-01T04:36:24;94651.00;;;5.68;82.25
31775;BME280;66189;49.000;11.640;2023-04-01T04:38:26;94651.28;;;5.63;82.39
31775;BME280;66189;49.000;11.640;2023-04-01T04:40:27;94648.59;;;5.63;82.08
31775;BME280;66189;49.000;11.640;2023-04-01T04:42:28;94640.69;;;5.66;82.13
31775;BME280;66189;49.000;11.640;2023-04-01T04:44:34;94639.25;;;5.73;81.93
31775;BME280;66189;49.000;11.640;2023-04-01T04:46:35;94655.84;;;5.62;82.01
31775;BME280;66189;49.000;11.640;2023-04-01T04:48:45;94655.13;;;5.65;81.76
31775;BME280;66189;49.000;11.640;2023-04-01T04:50:47;94645.19;;;5.62;82.08
31775;BME280;66189;49.000;11.640;2023-04-01T04:52:49;94651.28;;;5.63;81.74
31775;BME280;66189;49.000;11.640;2023-04-01T04:54:50;94654.97;;;5.55;82.13
31775;BME280;66189;49.000;11.640;2023-04-01T04:56:51;94658.47;;;5.59;81.84
31775;BME280;66189;49.000;11.640;2023-04-01T04:58:52;94665.75;;;5.62;81.79
31775;BME280;66189;49.000;11.640;2023-04-01T05:00:58;94655.50;;;5.64;81.79
31775;BME280;66189;49.000;11.640;2023-04-01T05:03:02;94659.63;;;5.61;81.76
31775;BME280;66189;49.000;11.640;2023-04-01T05:05:03;94663.50;;;5.64;82.01
31775;BME280;66189;49.000;11.640;2023-04-01T05:07:04;94664.22;;;5.61;81.53
31775;BME280;66189;49.000;11.640;2023-04-01T05:09:11;94655.84;;;5.62;81.60
31775;BME280;66189;49.000;11.640;2023-04-01T05:11:19;94665.81;;;5.65;81.12
31775;BME280;66189;49.000;11.640;2023-04-01T05:13:22;94665.06;;;5.65;81.30
31775;BME280;66189;49.000;11.640;2023-04-01T05:15:23;94660.44;;;5.62;81.33
31775;BME280;66189;49.000;11.640;2023-04-01T05:17:24;94666.47;;;5.59;80.96
31775;BME280;66189;49.000;11.640;2023-04-01T05:19:24;94656.91;;;5.58;80.97
31775;BME280;66189;49.000;11.640;2023-04-01T05:21:25;94664.25;;;5.64;80.96
31775;BME280;66189;49.000;11.640;2023-04-01T05:23:26;94666.56;;;5.66;80.78
31775;BME280;66189;49.000;11.640;2023-04-01T05:25:27;94662.75;;;5.63;80.35
31775;BME280;66189;49.000;11.640;2023-04-01T05:27:28;94663.91;;;5.66;80.39
31775;BME280;66189;49.000;11.640;2023-04-01T05:29:28;94656.69;;;5.66;80.46
31775;BME280;66189;49.000;11.640;2023-04-01T05:31:36;94666.66;;;5.69;80.07
31775;BME280;66189;49.000;11.640;2023-04-01T05:33:38;94665.84;;;5.69;80.10
31775;BME280;66189;49.000;11.640;2023-04-01T05:35:40;94672.75;;;5.70;79.98
31775;BME280;66189;49.000;11.640;2023-04-01T05:37:40;94662.53;;;5.76;79.88
31775;BME280;66189;49.000;11.640;2023-04-01T05:39:41;94667.75;;;5.68;80.19
31775;BME280;66189;49.000;11.640;2023-04-01T05:41:42;94679.69;;;5.75;79.73
31775;BME280;66189;49.000;11.640;2023-04-01T05:43:42;94666.66;;;5.69;80.05
31775;BME280;66189;49.000;11.640;2023-04-01T05:46:06;94676.59;;;5.73;79.69
31775;BME280;66189;49.000;11.640;2023-04-01T05:48:18;94665.63;;;5.78;79.47
31775;BME280;66189;49.000;11.640;2023-04-01T05:50:18;94678.47;;;5.72;79.54
31775;BME280;66189;49.000;11.640;2023-04-01T05:52:19;94668.66;;;5.76;79.47
31775;BME280;66189;49.000;11.640;2023-04-01T05:54:19;94672.78;;;5.74;79.17
31775;BME280;66189;49.000;11.640;2023-04-01T05:56:20;94664.75;;;5.70;79.51
31775;BME280;66189;49.000;11.640;2023-04-01T05:58:24;94663.53;;;5.67;79.39
31775;BME280;66189;49.000;11.640;2023-04-01T06:00:25;94659.09;;;5.75;79.87
31775;BME280;66189;49.000;11.640;2023-04-01T06:02:25;94662.94;;;5.78;79.10
31775;BME280;66189;49.000;11.640;2023-04-01T06:04:33;94660.22;;;5.74;79.07
31775;BME280;66189;49.000;11.640;2023-04-01T06:06:36;94663.72;;;5.78;79.40
31775;BME280;66189;49.000;11.640;2023-04-01T06:08:42;94666.28;;;5.71;79.18
31775;BME280;66189;49.000;11.640;2023-04-01T06:11:35;94661.34;;;5.73;79.16
31775;BME280;66189;49.000;11.640;2023-04-01T06:18:49;94663.78;;;5.82;78.54
31775;BME280;66189;49.000;11.640;2023-04-01T06:23:59;94673.66;;;5.81;78.06
31775;BME280;66189;49.000;11.640;2023-04-01T06:29:29;94676.94;;;5.94;77.83
31775;BME280;66189;49.000;11.640;2023-04-01T06:38:57;94680.91;;;6.04;77.49
31775;BME280;66189;49.000;11.640;2023-04-01T06:46:19;94684.03;;;6.10;77.08
31775;BME280;66189;49.000;11.640;2023-04-01T06:56:25;94683.72;;;6.15;77.30
31775;BME280;66189;49.000;11.640;2023-04-01T07:00:46;94680.50;;;6.29;76.81
31775;BME280;66189;49.000;11.640;2023-04-01T07:02:58;94682.00;;;6.26;76.68
31775;BME280;66189;49.000;11.640;2023-04-01T07:05:02;94669.09;;;6.32;76.79
31775;BME280;66189;49.000;11.640;2023-04-01T07:07:20;94676.41;;;6.35;76.78
31775;BME280;66189;49.000;11.640;2023-04-01T07:09:38;94679.59;;;6.48;76.58
31775;BME280;66189;49.000;11.640;2023-04-01T07:12:03;94682.66;;;6.46;76.77
31775;BME280;66189;49.000;11.640;2023-04-01T07:14:36;94681.97;;;6.53;76.21
31775;BME280;66189;49.000;11.640;2023-04-01T07:19:08;94677.50;;;6.61;76.55
31775;BME280;66189;49.000;11.640;2023-04-01T07:21:32;94672.22;;;6.68;75.78
31775;BME280;66189;49.000;11.640;2023-04-01T07:23:42;94678.06;;;6.77;76.02
31775;BME280;66189;49.000;11.640;2023-04-01T07:26:22;94671.91;;;6.73;75.60
31775;BME280;66189;49.000;11.640;2023-04-01T07:28:34;94683.69;;;6.68;75.64
31775;BME280;66189;49.000;11.640;2023-04-01T07:30:52;94672.34;;;6.79;75.71
31775;BME280;66189;49.000;11.640;2023-04-01T07:33:03;94673.78;;;6.69;75.23
31775;BME280;66189;49.000;11.640;2023-04-01T07:37:30;94673.50;;;6.78;75.29
31775;BME280;66189;49.000;11.640;2023-04-01T07:41:55;94696.47;;;6.82;75.22
31775;BME280;66189;49.000;11.640;2023-04-01T07:49:30;94681.00;;;6.99;74.14
31775;BME280;66189;49.000;11.640;2023-04-01T07:51:17;94684.91;;;7.08;73.72
31775;BME280;66189;49.000;11.640;2023-04-01T07:53:36;94687.63;;;7.12;73.53
31775;BME280;66189;49.000;11.640;2023-04-01T07:57:53;94686.56;;;7.17;73.03
31775;BME280;66189;49.000;11.640;2023-04-01T08:00:07;94705.19;;;7.09;72.16
31775;BME280;66189;49.000;11.640;2023-04-01T08:02:56;94704.59;;;7.27;71.63
31775;BME280;66189;49.000;11.640;2023-04-01T08:05:24;94679.94;;;7.44;71.45
31775;BME280;66189;49.000;11.640;2023-04-01T08:10:49;94694.88;;;7.45;71.09
31775;BME280;66189;49.000;11.640;2023-04-01T08:16:12;94687.44;;;7.73;71.22
31775;BME280;66189;49.000;11.640;2023-04-01T08:18:46;94677.53;;;7.77;69.63
31775;BME280;66189;49.000;11.640;2023-04-01T08:20:54;94671.50;;;7.83;69.13
31775;BME280;66189;49.000;11.640;2023-04-01T08:23:00;94674.28;;;8.01;69.05
31775;BME280;66189;49.000;11.640;2023-04-01T08:25:16;94670.38;;;7.92;67.61
31775;BME280;66189;49.000;11.640;2023-04-01T08:27:43;94673.94;;;8.07;67.72
31775;BME280;66189;49.000;11.640;2023-04-01T08:29:50;94684.22;;;7.97;67.72
31775;BME280;66189;49.000;11.640;2023-04-01T08:32:25;94716.72;;;7.99;67.53
31775;BME280;66189;49.000;11.640;2023-04-01T08:34:47;94668.47;;;7.89;67.56
31775;BME280;66189;49.000;11.640;2023-04-01T08:37:11;94684.97;;;7.94;68.49
31775;BME280;66189;49.000;11.640;2023-04-01T08:41:40;94684.63;;;8.03;67.56
31775;BME280;66189;49.000;11.640;2023-04-01T08:54:01;94656.44;;;8.20;66.15
31775;BME280;66189;49.000;11.640;2023-04-01T08:56:14;94653.00;;;8.23;66.24
31775;BME280;66189;49.000;11.640;2023-04-01T08:58:42;94662.63;;;8.35;66.53
31775;BME280;66189;49.000;11.640;2023-04-01T09:01:17;94662.25;;;8.33;66.37
31775;BME280;66189;49.000;11.640;2023-04-01T09:03:41;94671.75;;;8.23;66.21
31775;BME280;66189;49.000;11.640;2023-04-01T09:10:34;94654.91;;;8.23;65.42
31775;BME280;66189;49.000;11.640;2023-04-01T09:13:09;94672.16;;;8.25;66.02
31775;BME280;66189;49.000;11.640;2023-04-01T09:22:24;94664.53;;;8.31;65.32
31775;BME280;66189;49.000;11.640;2023-04-01T09:37:20;94672.53;;;8.27;67.38
31775;BME280;66189;49.000;11.640;2023-04-01T09:39:37;94676.03;;;8.35;65.75
31775;BME280;66189;49.000;11.640;2023-04-01T09:44:22;94669.56;;;8.40;65.76
31775;BME280;66189;49.000;11.640;2023-04-01T09:59:04;94657.28;;;8.35;65.56
31775;BME280;66189;49.000;11.640;2023-04-01T10:19:01;94667.28;;;8.42;67.17
31775;BME280;66189;49.000;11.640;2023-04-01T10:21:16;94662.31;;;8.44;66.99
31775;BME280;66189;49.000;11.640;2023-04-01T10:25:42;94676.91;;;8.46;67.56
31775;BME280;66189;49.000;11.640;2023-04-01T10:28:09;94654.63;;;8.42;67.08
31775;BME280;66189;49.000;11.640;2023-04-01T10:37:40;94649.50;;;8.89;66.39
31775;BME280;66189;49.000;11.640;2023-04-01T10:45:30;94637.69;;;9.01;65.51
31775;BME280;66189;49.000;11.640;2023-04-01T10:52:32;94667.78;;;8.58;67.20
31775;BME280;66189;49.000;11.640;2023-04-01T10:55:04;94664.59;;;8.42;69.08
31775;BME280;66189;49.000;11.640;2023-04-01T11:00:46;94669.03;;;8.16;71.69
31775;BME280;66189;49.000;11.640;2023-04-01T11:06:56;94665.84;;;7.96;74.09
31775;BME280;66189;49.000;11.640;2023-04-01T11:09:31;94677.97;;;7.82;74.62
31775;BME280;66189;49.000;11.640;2023-04-01T11:12:08;94666.38;;;7.71;75.41
31775;BME280;66189;49.000;11.640;2023-04-01T11:16:20;94676.91;;;7.46;75.94
31775;BME280;66189;49.000;11.640;2023-04-01T11:25:52;94673.59;;;7.22;77.42
31775;BME280;66189;49.000;11.640;2023-04-01T11:35:46;94669.97;;;7.04;79.34
31775;BME280;66189;49.000;11.640;2023-04-01T11:38:14;94672.97;;;6.99;80.86
31775;BME280;66189;49.000;11.640;2023-04-01T11:43:00;94666.09;;;6.98;79.35
31775;BME280;66189;49.000;11.640;2023-04-01T11:45:37;94673.28;;;6.93;79.75
31775;BME280;66189;49.000;11.640;2023-04-01T11:51:00;94662.72;;;7.04;79.27
31775;BME280;66189;49.000;11.640;2023-04-01T11:53:31;94662.75;;;7.08;79.76
31775;BME280;66189;49.000;11.640;2023-04-01T11:55:42;94674.59;;;7.07;79.74
31775;BME280;66189;49.000;11.640;2023-04-01T12:05:00;94682.59;;;7.07;80.25
31775;BME280;66189;49.000;11.640;2023-04-01T12:16:53;94670.56;;;6.86;79.18
31775;BME280;66189;49.000;11.640;2023-04-01T12:19:01;94674.81;;;6.91;80.30
31775;BME280;66189;49.000;11.640;2023-04-01T12:23:35;94675.16;;;6.89;79.94
31775;BME280;66189;49.000;11.640;2023-04-01T12:28:22;94683.25;;;6.97;80.35
31775;BME280;66189;49.000;11.640;2023-04-01T12:35:41;94673.22;;;6.86;80.02
31775;BME280;66189;49.000;11.640;2023-04-01T12:42:06;94688.19;;;6.91;80.30
31775;BME280;66189;49.000;11.640;2023-04-01T12:44:26;94672.16;;;6.94;79.56
31775;BME280;66189;49.000;11.640;2023-04-01T12:47:04;94689.91;;;7.10;80.00
31775;BME280;66189;49.000;11.640;2023-04-01T12:49:20;94672.09;;;7.25;80.55
31775;BME280;66189;49.000;11.640;2023-04-01T12:55:51;94673.94;;;7.17;78.03
31775;BME280;66189;49.000;11.640;2023-04-01T13:02:35;94687.34;;;7.21;79.34
31775;BME280;66189;49.000;11.640;2023-04-01T13:11:47;94684.19;;;7.11;79.57
31775;BME280;66189;49.000;11.640;2023-04-01T13:14:05;94685.25;;;7.03;80.92
31775;BME280;66189;49.000;11.640;2023-04-01T13:16:23;94690.63;;;7.07;80.50
31775;BME280;66189;49.000;11.640;2023-04-01T13:20:51;94689.78;;;6.99;81.70
31775;BME280;66189;49.000;11.640;2023-04-01T13:23:09;94692.09;;;7.01;81.88
31775;BME280;66189;49.000;11.640;2023-04-01T13:25:36;94692.19;;;7.08;81.19
31775;BME280;66189;49.000;11.640;2023-04-01T13:27:47;94698.25;;;7.05;81.29
31775;BME280;66189;49.000;11.640;2023-04-01T13:35:04;94689.59;;;7.15;81.61
31775;BME280;66189;49.000;11.640;2023-04-01T13:39:15;94707.22;;;7.20;82.62
31775;BME280;66189;49.000;11.640;2023-04-01T13:42:01;94701.03;;;7.16;82.36
31775;BME280;66189;49.000;11.640;2023-04-01T13:44:27;94712.84;;;7.11;81.65
31775;BME280;66189;49.000;11.640;2023-04-01T13:46:41;94707.00;;;7.02;82.65
31775;BME280;66189;49.000;11.640;2023-04-01T13:48:50;94713.50;;;7.04;82.55
31775;BME280;66189;49.000;11.640;2023-04-01T13:53:23;94704.25;;;6.94;82.61
31775;BME280;66189;49.000;11.640;2023-04-01T13:58:07;94706.59;;;7.00;82.80
31775;BME280;66189;49.000;11.640;2023-04-01T14:11:45;94709.41;;;6.80;83.26
31775;BME280;66189;49.000;11.640;2023-04-01T14:14:23;94724.31;;;6.81;84.25
31775;BME280;66189;49.000;11.640;2023-04-01T14:16:58;94714.06;;;6.83;83.98
31775;BME280;66189;49.000;11.640;2023-04-01T14:19:14;94705.25;;;6.83;84.50
31775;BME280;66189;49.000;11.640;2023-04-01T14:21:50;94717.84;;;6.82;85.20
31775;BME280;66189;49.000;11.640;2023-04-01T14:28:40;94708.72;;;6.83;84.58
31775;BME280;66189;49.000;11.640;2023-04-01T14:35:38;94708.84;;;6.94;85.25
31775;BME280;66189;49.000;11.640;2023-04-01T14:38:02;94710.41;;;6.99;84.36
31775;BME280;66189;49.000;11.640;2023-04-01T14:40:37;94718.06;;;7.00;84.42
31775;BME280;66189;49.000;11.640;2023-04-01T14:43:09;94715.41;;;7.00;85.20
31775;BME280;66189;49.000;11.640;2023-04-01T14:45:37;94718.09;;;7.04;84.74
31775;BME280;66189;49.000;11.640;2023-04-01T14:49:53;94713.00;;;7.25;83.90
31775;BME280;66189;49.000;11.640;2023-04-01T14:52:17;94723.41;;;7.34;84.38
31775;BME280;66189;49.000;11.640;2023-04-01T14:54:34;94710.06;;;7.38;83.02
31775;BME280;66189;49.000;11.640;2023-04-01T14:56:44;94713.97;;;7.44;82.65
31775;BME280;66189;49.000;11.640;2023-04-01T14:58:50;94715.56;;;7.52;82.70
31775;BME280;66189;49.000;11.640;2023-04-01T15:01:13;94723.59;;;7.52;82.42
31775;BME280;66189;49.000;11.640;2023-04-01T15:03:32;94716.69;;;7.51;82.25
31775;BME280;66189;49.000;11.640;2023-04-01T15:08:26;94729.69;;;7.53;82.82
31775;BME280;66189;49.000;11.640;2023-04-01T15:13:13;94727.81;;;7.53;82.33
31775;BME280;66189;49.000;11.640;2023-04-01T15:15:23;94730.88;;;7.55;82.50
31775;BME280;66189;49.000;11.640;2023-04-01T15:17:44;94732.38;;;7.53;82.53
31775;BME280;66189;49.000;11.640;2023-04-01T15:24:44;94738.38;;;7.42;82.24
31775;BME280;66189;49.000;11.640;2023-04-01T15:27:09;94739.91;;;7.40;82.96
31775;BME280;66189;49.000;11.640;2023-04-01T15:31:43;94734.50;;;7.36;82.98
31775;BME280;66189;49.000;11.640;2023-04-01T15:36:33;94745.66;;;7.42;83.44
31775;BME280;66189;49.000;11.640;2023-04-01T15:38:50;94749.50;;;7.44;83.37
31775;BME280;66189;49.000;11.640;2023-04-01T15:41:00;94743.50;;;7.55;83.72
31775;BME280;66189;49.000;11.640;2023-04-01T15:43:05;94746.22;;;7.58;82.69
31775;BME280;66189;49.000;11.640;2023-04-01T15:47:45;94743.50;;;7.55;83.12
31775;BME280;66189;49.000;11.640;2023-04-01T15:50:04;94746.91;;;7.52;83.11
31775;BME280;66189;49.000;11.640;2023-04-01T15:57:42;94750.81;;;7.61;83.39
31775;BME280;66189;49.000;11.640;2023-04-01T16:00:02;94748.88;;;7.58;83.94
31775;BME280;66189;49.000;11.640;2023-04-01T16:04:46;94753.09;;;7.59;83.39
31775;BME280;66189;49.000;11.640;2023-04-01T16:11:25;94756.84;;;7.51;83.09
31775;BME280;66189;49.000;11.640;2023-04-01T16:20:55;94761.72;;;7.42;83.84
31775;BME280;66189;49.000;11.640;2023-04-01T16:23:26;94767.34;;;7.33;84.62
31775;BME280;66189;49.000;11.640;2023-04-01T16:27:50;94764.28;;;7.35;83.40
31775;BME280;66189;49.000;11.640;2023-04-01T16:30:16;94765.84;;;7.36;83.88
31775;BME280;66189;49.000;11.640;2023-04-01T16:32:45;94774.16;;;7.27;84.42
31775;BME280;66189;49.000;11.640;2023-04-01T16:37:20;94776.53;;;7.36;84.08